Time;durP1;ratioP1;P1;durP2;ratioP2;P2;SDS_P1;SDS_P2;PMS_P1;PMS_P2;Temp;Humidity;BMP_temperature;BMP_pressure;BME280_temperature;BME280_humidity;BME280_pressure;Samples;Min_cycle;Max_cycle;Signal;HPM_P1;HPM_P2
2023/03/06 00:01:50;;;;;;;8.60;1.00;;;;;;;;;;5023946;28;20032;-71
2023/03/06 00:04:18;;;;;;;6.90;0.90;;;;;;;;;;5022333;28;20025;-69
2023/03/06 00:06:43;;;;;;;7.28;1.02;;;;;;;;;;5023654;28;20052;-70
2023/03/06 00:09:09;;;;;;;12.15;1.67;;;;;;;;;;5021621;28;20029;-70
2023/03/06 00:11:35;;;;;;;7.90;1.40;;;;;;;;;;5023867;28;20422;-71
2023/03/06 00:14:02;;;;;;;7.15;1.05;;;;;;;;;;5023680;28;20028;-70
2023/03/06 00:16:28;;;;;;;5.70;1.13;;;;;;;;;;5023641;28;20040;-69
2023/03/06 00:18:53;;;;;;;5.50;1.30;;;;;;;;;;5024028;28;20030;-70
2023/03/06 00:21:18;;;;;;;7.68;1.33;;;;;;;;;;5023694;28;20026;-71
2023/03/06 00:23:43;;;;;;;5.65;1.05;;;;;;;;;;5022218;28;20278;-69
2023/03/06 00:26:12;;;;;;;8.15;1.13;;;;;;;;;;5022271;28;20038;-70
2023/03/06 00:28:37;;;;;;;8.63;1.00;;;;;;;;;;5023651;28;20398;-69
2023/03/06 00:31:02;;;;;;;12.13;1.50;;;;;;;;;;5022077;28;20048;-70
2023/03/06 00:33:28;;;;;;;14.38;1.48;;;;;;;;;;5022823;28;20041;-70
2023/03/06 00:35:53;;;;;;;8.98;1.42;;;;;;;;;;5021332;28;20021;-71
2023/03/06 00:38:18;;;;;;;9.27;1.30;;;;;;;;;;5022912;28;20056;-70
2023/03/06 00:40:44;;;;;;;17.98;2.45;;;;;;;;;;5023493;28;20048;-70
2023/03/06 00:43:09;;;;;;;13.10;1.45;;;;;;;;;;5022971;28;20034;-70
2023/03/06 00:45:34;;;;;;;6.78;1.30;;;;;;;;;;5023423;28;20117;-70
2023/03/06 00:48:00;;;;;;;11.23;1.40;;;;;;;;;;5023447;28;20107;-69
2023/03/06 00:50:25;;;;;;;8.88;1.23;;;;;;;;;;5023099;28;20041;-70
2023/03/06 00:52:52;;;;;;;6.32;1.35;;;;;;;;;;5005025;28;20041;-70
2023/03/06 00:55:20;;;;;;;9.65;1.77;;;;;;;;;;5021687;28;20045;-70
2023/03/06 00:57:45;;;;;;;10.98;1.33;;;;;;;;;;5022897;28;20037;-69
2023/03/06 01:00:13;;;;;;;7.32;1.10;;;;;;;;;;5020845;28;20030;-69
2023/03/06 01:02:39;;;;;;;8.45;1.48;;;;;;;;;;5004913;28;20026;-71
2023/03/06 01:05:05;;;;;;;14.68;1.48;;;;;;;;;;5020585;28;20482;-71
2023/03/06 01:07:32;;;;;;;10.52;1.77;;;;;;;;;;5021443;28;20034;-70
2023/03/06 01:09:58;;;;;;;8.75;1.48;;;;;;;;;;5022260;28;20062;-70
2023/03/06 01:12:25;;;;;;;8.85;1.20;;;;;;;;;;5022617;28;20030;-69
2023/03/06 01:14:50;;;;;;;5.32;1.23;;;;;;;;;;5023518;28;20389;-70
2023/03/06 01:17:16;;;;;;;9.00;1.50;;;;;;;;;;5021962;28;20034;-68
2023/03/06 01:19:41;;;;;;;22.90;2.05;;;;;;;;;;5022082;28;20399;-70
2023/03/06 01:22:09;;;;;;;10.82;1.75;;;;;;;;;;5023179;28;20079;-70
2023/03/06 01:24:34;;;;;;;8.80;1.95;;;;;;;;;;5022279;28;20116;-70
2023/03/06 01:26:59;;;;;;;9.43;1.65;;;;;;;;;;5022907;28;20116;-68
2023/03/06 01:29:25;;;;;;;10.80;1.45;;;;;;;;;;5022404;28;20061;-69
2023/03/06 01:31:50;;;;;;;9.77;1.27;;;;;;;;;;5022385;28;20038;-69
2023/03/06 01:34:16;;;;;;;9.55;1.65;;;;;;;;;;5022161;28;20030;-70
2023/03/06 01:36:41;;;;;;;9.32;1.63;;;;;;;;;;5021346;28;20088;-69
2023/03/06 01:39:08;;;;;;;8.52;1.88;;;;;;;;;;5022374;28;20102;-69
2023/03/06 01:41:36;;;;;;;23.80;2.10;;;;;;;;;;5038173;28;20037;-68
2023/03/06 01:44:01;;;;;;;5.88;1.15;;;;;;;;;;5022422;28;20029;-68
2023/03/06 01:46:27;;;;;;;10.30;1.33;;;;;;;;;;5028899;28;20025;-69
2023/03/06 01:49:12;;;;;;;7.75;1.23;;;;;;;;;;5040583;28;20029;-69
2023/03/06 01:51:39;;;;;;;20.92;1.60;;;;;;;;;;5038850;28;20124;-68
2023/03/06 01:54:12;;;;;;;10.13;1.30;;;;;;;;;;5041861;28;20033;-68
2023/03/06 01:56:41;;;;;;;9.50;1.88;;;;;;;;;;5042240;28;20061;-68
2023/03/06 01:59:06;;;;;;;28.08;2.55;;;;;;;;;;5040662;28;20267;-68
2023/03/06 02:01:32;;;;;;;12.77;1.40;;;;;;;;;;5024135;28;20032;-69
2023/03/06 02:03:59;;;;;;;9.13;1.50;;;;;;;;;;5041838;28;20043;-69
2023/03/06 02:06:26;;;;;;;10.65;1.70;;;;;;;;;;5042666;28;20060;-70
2023/03/06 02:08:53;;;;;;;10.32;1.80;;;;;;;;;;5040810;28;20021;-71
2023/03/06 02:11:25;;;;;;;25.15;1.70;;;;;;;;;;5045403;28;20243;-73
2023/03/06 02:13:51;;;;;;;9.18;1.35;;;;;;;;;;5045569;28;20490;-73
2023/03/06 02:16:18;;;;;;;7.13;1.83;;;;;;;;;;5044175;28;20493;-73
2023/03/06 02:18:44;;;;;;;7.65;2.75;;;;;;;;;;5025835;28;20109;-73
2023/03/06 02:21:12;;;;;;;12.00;2.50;;;;;;;;;;5024690;28;20113;-72
2023/03/06 02:23:53;;;;;;;8.57;2.45;;;;;;;;;;5025624;28;20498;-72
2023/03/06 02:26:19;;;;;;;7.75;1.95;;;;;;;;;;5025530;28;20087;-72
2023/03/06 02:28:45;;;;;;;13.65;2.13;;;;;;;;;;5026108;28;20034;-72
2023/03/06 02:31:29;;;;;;;8.18;1.65;;;;;;;;;;5025671;28;20065;-73
2023/03/06 02:34:07;;;;;;;9.40;2.20;;;;;;;;;;5024404;28;20548;-71
2023/03/06 02:36:35;;;;;;;8.23;1.95;;;;;;;;;;5007552;28;20030;-71
2023/03/06 02:39:00;;;;;;;23.05;2.35;;;;;;;;;;5005662;28;20105;-72
2023/03/06 02:41:26;;;;;;;10.32;2.20;;;;;;;;;;5004620;28;20113;-72
2023/03/06 02:43:51;;;;;;;11.25;2.05;;;;;;;;;;4987864;28;20117;-72
2023/03/06 02:46:19;;;;;;;8.32;2.13;;;;;;;;;;5008494;28;20044;-72
2023/03/06 02:48:44;;;;;;;13.40;2.03;;;;;;;;;;5025409;28;20029;-71
2023/03/06 02:51:10;;;;;;;9.48;1.83;;;;;;;;;;5007470;28;20029;-71
2023/03/06 02:53:35;;;;;;;8.05;1.92;;;;;;;;;;5025443;28;20032;-71
2023/03/06 02:56:03;;;;;;;9.02;1.95;;;;;;;;;;5025870;28;20034;-70
2023/03/06 02:58:33;;;;;;;10.50;2.00;;;;;;;;;;5023896;28;20403;-69
2023/03/06 03:00:58;;;;;;;13.75;2.03;;;;;;;;;;5023205;28;20517;-69
2023/03/06 03:03:23;;;;;;;14.90;2.17;;;;;;;;;;5025732;28;20022;-70
2023/03/06 03:05:48;;;;;;;11.00;1.60;;;;;;;;;;5024865;28;20530;-69
2023/03/06 03:08:14;;;;;;;10.95;1.90;;;;;;;;;;5025224;28;20052;-70
2023/03/06 03:10:39;;;;;;;11.75;2.05;;;;;;;;;;5025533;28;20533;-71
2023/03/06 03:13:07;;;;;;;9.63;1.65;;;;;;;;;;5025165;28;20029;-71
2023/03/06 03:15:32;;;;;;;14.13;1.90;;;;;;;;;;5024237;28;20033;-71
2023/03/06 03:17:57;;;;;;;17.60;2.20;;;;;;;;;;5025516;28;20021;-71
2023/03/06 03:20:22;;;;;;;9.05;1.15;;;;;;;;;;5025228;28;20045;-69
2023/03/06 03:22:49;;;;;;;11.50;1.60;;;;;;;;;;5024583;28;20121;-70
2023/03/06 03:25:14;;;;;;;12.40;1.13;;;;;;;;;;5024842;28;20045;-69
2023/03/06 03:27:39;;;;;;;13.45;1.52;;;;;;;;;;5024819;28;20049;-70
2023/03/06 03:30:09;;;;;;;10.85;1.17;;;;;;;;;;5022888;28;20053;-70
2023/03/06 03:32:35;;;;;;;13.77;1.70;;;;;;;;;;5015365;28;20034;-69
2023/03/06 03:35:00;;;;;;;13.32;1.60;;;;;;;;;;4996205;28;20029;-69
2023/03/06 03:37:26;;;;;;;15.00;2.10;;;;;;;;;;5026716;28;20109;-69
2023/03/06 03:39:51;;;;;;;28.52;3.25;;;;;;;;;;5004784;28;20033;-70
2023/03/06 03:42:16;;;;;;;18.02;1.83;;;;;;;;;;5000382;28;20034;-68
2023/03/06 03:44:42;;;;;;;9.52;1.23;;;;;;;;;;4984988;28;20034;-68
2023/03/06 03:47:07;;;;;;;20.35;2.03;;;;;;;;;;5009083;28;20455;-70
2023/03/06 03:49:35;;;;;;;9.65;1.27;;;;;;;;;;5024608;28;20030;-69
2023/03/06 03:52:00;;;;;;;10.85;1.63;;;;;;;;;;5024518;28;20116;-70
2023/03/06 03:54:25;;;;;;;11.30;1.40;;;;;;;;;;5023959;28;20056;-69
2023/03/06 03:56:50;;;;;;;15.27;1.42;;;;;;;;;;5024610;28;20112;-70
2023/03/06 03:59:16;;;;;;;8.45;1.67;;;;;;;;;;5023869;28;20060;-70
2023/03/06 04:01:46;;;;;;;4.85;0.93;;;;;;;;;;5024291;28;20041;-70
2023/03/06 04:04:13;;;;;;;13.32;2.58;;;;;;;;;;5023975;28;20060;-71
2023/03/06 04:06:39;;;;;;;7.05;1.40;;;;;;;;;;5024259;28;20514;-70
2023/03/06 04:09:04;;;;;;;8.32;2.08;;;;;;;;;;5006102;28;20026;-70
2023/03/06 04:11:29;;;;;;;19.40;1.65;;;;;;;;;;5022765;28;20438;-70
2023/03/06 04:13:55;;;;;;;8.15;1.38;;;;;;;;;;5023876;28;20022;-70
2023/03/06 04:16:20;;;;;;;13.65;1.70;;;;;;;;;;5005935;28;20037;-70
2023/03/06 04:18:47;;;;;;;7.95;1.65;;;;;;;;;;5005301;28;20079;-70
2023/03/06 04:21:15;;;;;;;9.82;1.33;;;;;;;;;;5021783;28;20121;-69
2023/03/06 04:23:41;;;;;;;6.43;0.98;;;;;;;;;;5023417;28;20034;-69
2023/03/06 04:26:06;;;;;;;10.88;1.10;;;;;;;;;;5005648;28;20398;-70
2023/03/06 04:28:31;;;;;;;10.77;1.05;;;;;;;;;;5023345;28;20029;-69
2023/03/06 04:30:59;;;;;;;10.57;2.03;;;;;;;;;;5023343;28;20234;-68
2023/03/06 04:33:27;;;;;;;6.95;1.20;;;;;;;;;;5004592;28;20037;-68
2023/03/06 04:35:54;;;;;;;8.65;1.45;;;;;;;;;;5014256;28;20065;-70
2023/03/06 04:38:20;;;;;;;14.68;1.85;;;;;;;;;;5004308;28;20049;-68
2023/03/06 04:40:45;;;;;;;5.68;1.05;;;;;;;;;;5034733;28;20052;-69
2023/03/06 04:43:10;;;;;;;7.65;1.33;;;;;;;;;;5035255;28;20204;-69
2023/03/06 04:45:38;;;;;;;13.57;1.65;;;;;;;;;;5034799;28;20088;-69
2023/03/06 04:48:03;;;;;;;12.48;1.58;;;;;;;;;;5021231;28;20494;-70
2023/03/06 04:50:31;;;;;;;8.45;1.00;;;;;;;;;;5004715;28;20033;-70
2023/03/06 04:53:00;;;;;;;6.05;1.05;;;;;;;;;;5022941;28;20113;-69
2023/03/06 04:55:25;;;;;;;16.45;1.80;;;;;;;;;;5023252;28;20029;-69
2023/03/06 04:57:50;;;;;;;10.95;1.65;;;;;;;;;;5040994;28;20413;-70
2023/03/06 05:00:20;;;;;;;13.82;1.15;;;;;;;;;;5043542;28;20025;-69
2023/03/06 05:02:49;;;;;;;9.90;1.23;;;;;;;;;;5075409;28;20056;-69
2023/03/06 05:05:14;;;;;;;7.22;1.05;;;;;;;;;;5042980;28;20116;-69
2023/03/06 05:07:42;;;;;;;10.85;1.65;;;;;;;;;;5041641;28;20117;-68
2023/03/06 05:10:12;;;;;;;6.53;0.95;;;;;;;;;;5022589;28;20430;-68
2023/03/06 05:12:38;;;;;;;11.18;1.73;;;;;;;;;;5022041;28;20030;-69
2023/03/06 05:15:06;;;;;;;9.18;1.10;;;;;;;;;;5021233;28;20022;-68
2023/03/06 05:17:32;;;;;;;8.23;1.10;;;;;;;;;;5022901;28;20243;-68
2023/03/06 05:20:00;;;;;;;5.88;0.80;;;;;;;;;;5021139;28;20034;-68
2023/03/06 05:22:27;;;;;;;5.90;0.93;;;;;;;;;;5042372;28;20390;-68
2023/03/06 05:24:52;;;;;;;5.38;0.85;;;;;;;;;;5041360;28;20075;-69
2023/03/06 05:27:20;;;;;;;5.95;1.13;;;;;;;;;;5043046;28;20026;-69
2023/03/06 05:29:45;;;;;;;4.15;1.13;;;;;;;;;;5040605;28;20434;-68
2023/03/06 05:32:11;;;;;;;4.85;1.08;;;;;;;;;;5041218;28;20067;-69
2023/03/06 05:34:38;;;;;;;5.95;1.35;;;;;;;;;;5040307;28;20025;-69
2023/03/06 05:37:03;;;;;;;9.23;1.35;;;;;;;;;;5023074;28;20029;-69
2023/03/06 05:39:28;;;;;;;5.82;0.98;;;;;;;;;;5021433;28;20021;-69
2023/03/06 05:41:53;;;;;;;4.90;1.17;;;;;;;;;;5037570;28;20029;-69
2023/03/06 05:44:19;;;;;;;8.73;1.73;;;;;;;;;;5020653;28;20026;-69
2023/03/06 05:46:44;;;;;;;4.13;1.00;;;;;;;;;;5035374;28;20401;-68
2023/03/06 05:49:10;;;;;;;4.18;0.90;;;;;;;;;;5044613;28;20348;-68
2023/03/06 05:51:35;;;;;;;6.53;1.33;;;;;;;;;;5045267;28;20037;-68
2023/03/06 05:54:00;;;;;;;6.40;1.80;;;;;;;;;;5046583;28;20033;-69
2023/03/06 05:56:28;;;;;;;7.63;1.67;;;;;;;;;;5046777;28;20056;-68
2023/03/06 05:58:53;;;;;;;4.90;1.58;;;;;;;;;;5044473;28;20029;-67
2023/03/06 06:01:19;;;;;;;6.35;1.40;;;;;;;;;;5046268;28;20086;-69
2023/03/06 06:03:44;;;;;;;4.43;1.10;;;;;;;;;;5046103;28;20029;-69
2023/03/06 06:06:11;;;;;;;6.57;1.67;;;;;;;;;;5046434;28;20040;-69
2023/03/06 06:08:36;;;;;;;6.93;1.05;;;;;;;;;;5027351;28;20040;-69
2023/03/06 06:11:04;;;;;;;6.10;1.17;;;;;;;;;;5044705;28;20043;-68
2023/03/06 06:13:30;;;;;;;6.45;1.20;;;;;;;;;;5044012;28;20033;-69
2023/03/06 06:15:56;;;;;;;6.13;1.65;;;;;;;;;;5046282;28;20041;-69
2023/03/06 06:18:23;;;;;;;7.45;1.70;;;;;;;;;;5046507;28;20349;-68
2023/03/06 06:20:51;;;;;;;5.45;1.83;;;;;;;;;;5045028;28;20112;-69
2023/03/06 06:23:16;;;;;;;4.85;2.08;;;;;;;;;;5044391;28;20025;-68
2023/03/06 06:25:44;;;;;;;7.22;2.30;;;;;;;;;;5044299;28;20047;-71
2023/03/06 06:28:11;;;;;;;7.32;2.25;;;;;;;;;;5043729;28;20033;-71
2023/03/06 06:30:36;;;;;;;5.63;1.90;;;;;;;;;;5045455;28;20210;-69
2023/03/06 06:33:02;;;;;;;6.13;1.88;;;;;;;;;;5045942;28;20029;-70
2023/03/06 06:35:29;;;;;;;6.78;1.70;;;;;;;;;;5035398;28;20033;-69
2023/03/06 06:37:59;;;;;;;7.20;1.83;;;;;;;;;;5025805;28;20478;-70
2023/03/06 06:40:26;;;;;;;5.28;1.70;;;;;;;;;;5025747;28;20022;-70
2023/03/06 06:42:51;;;;;;;5.47;1.67;;;;;;;;;;5057177;28;20042;-69
2023/03/06 06:45:19;;;;;;;7.88;1.50;;;;;;;;;;5057359;28;20032;-69
2023/03/06 06:47:44;;;;;;;5.70;2.53;;;;;;;;;;5025410;28;20029;-69
2023/03/06 06:50:13;;;;;;;5.45;1.40;;;;;;;;;;5025263;28;20104;-70
2023/03/06 06:52:40;;;;;;;7.30;1.60;;;;;;;;;;5025207;28;20036;-70
2023/03/06 06:55:11;;;;;;;5.53;1.60;;;;;;;;;;5023465;28;20080;-69
2023/03/06 06:57:36;;;;;;;8.30;1.58;;;;;;;;;;5022619;28;20034;-70
2023/03/06 07:00:04;;;;;;;4.65;1.42;;;;;;;;;;5025401;28;20034;-70
2023/03/06 07:02:31;;;;;;;7.88;1.60;;;;;;;;;;5023676;28;20478;-70
2023/03/06 07:04:57;;;;;;;3.90;1.73;;;;;;;;;;5025458;28;20099;-69
2023/03/06 07:07:25;;;;;;;4.88;2.00;;;;;;;;;;5023408;28;20033;-70
2023/03/06 07:09:50;;;;;;;7.53;2.30;;;;;;;;;;5025277;28;20036;-70
2023/03/06 07:12:15;;;;;;;5.60;2.70;;;;;;;;;;5025451;28;20033;-70
2023/03/06 07:14:41;;;;;;;7.72;2.65;;;;;;;;;;5024892;28;20033;-70
2023/03/06 07:17:09;;;;;;;10.40;2.95;;;;;;;;;;5025449;28;20037;-71
2023/03/06 07:19:34;;;;;;;5.75;2.10;;;;;;;;;;5025028;28;20029;-70
2023/03/06 07:22:03;;;;;;;5.95;1.63;;;;;;;;;;5023280;28;20149;-70
2023/03/06 07:24:28;;;;;;;5.95;1.70;;;;;;;;;;5024459;28;20080;-70
2023/03/06 07:26:54;;;;;;;3.65;1.65;;;;;;;;;;5024826;28;20418;-70
2023/03/06 07:29:19;;;;;;;7.43;1.40;;;;;;;;;;5024622;28;20025;-70
2023/03/06 07:31:44;;;;;;;5.72;1.38;;;;;;;;;;5023432;28;20052;-70
2023/03/06 07:34:14;;;;;;;3.65;1.35;;;;;;;;;;5023184;28;20041;-70
2023/03/06 07:36:41;;;;;;;5.32;1.42;;;;;;;;;;5024726;28;20030;-70
2023/03/06 07:39:07;;;;;;;8.45;1.35;;;;;;;;;;5024874;28;20040;-70
2023/03/06 07:41:32;;;;;;;5.28;1.42;;;;;;;;;;5039604;28;20589;-69
2023/03/06 07:44:00;;;;;;;5.53;1.30;;;;;;;;;;5024859;28;20478;-71
2023/03/06 07:46:26;;;;;;;6.10;1.20;;;;;;;;;;5024290;28;20052;-70
2023/03/06 07:48:51;;;;;;;3.53;1.20;;;;;;;;;;5006346;28;20026;-70
2023/03/06 07:51:17;;;;;;;5.45;1.40;;;;;;;;;;5023995;28;20052;-70
2023/03/06 07:53:43;;;;;;;5.18;1.13;;;;;;;;;;5024367;28;20033;-69
2023/03/06 07:56:09;;;;;;;3.85;1.10;;;;;;;;;;5023692;28;20038;-71
2023/03/06 07:58:36;;;;;;;4.25;1.10;;;;;;;;;;5024284;28;20067;-70
2023/03/06 08:01:02;;;;;;;5.00;1.23;;;;;;;;;;5022927;28;20039;-70
2023/03/06 08:03:28;;;;;;;5.13;0.77;;;;;;;;;;5024390;28;20115;-70
2023/03/06 08:05:53;;;;;;;4.80;0.90;;;;;;;;;;5024278;28;20076;-71
2023/03/06 08:08:18;;;;;;;5.15;1.00;;;;;;;;;;5005399;28;20037;-71
2023/03/06 08:10:47;;;;;;;2.78;0.80;;;;;;;;;;5023873;28;20057;-69
2023/03/06 08:13:15;;;;;;;4.03;0.88;;;;;;;;;;5023278;28;20029;-72
2023/03/06 08:15:45;;;;;;;3.30;0.80;;;;;;;;;;5022078;28;20041;-69
2023/03/06 08:18:10;;;;;;;8.13;1.65;;;;;;;;;;5022227;28;20045;-70
2023/03/06 08:20:38;;;;;;;3.50;0.82;;;;;;;;;;5023580;28;20166;-71
2023/03/06 08:23:03;;;;;;;6.72;0.73;;;;;;;;;;5021922;28;20025;-71
2023/03/06 08:25:31;;;;;;;2.80;0.80;;;;;;;;;;5022296;28;20091;-71
2023/03/06 08:27:57;;;;;;;6.85;1.30;;;;;;;;;;5022157;28;20132;-72
2023/03/06 08:30:24;;;;;;;4.07;0.70;;;;;;;;;;5023696;28;20394;-70
2023/03/06 08:32:49;;;;;;;4.82;0.60;;;;;;;;;;5023863;28;20025;-70
2023/03/06 08:35:14;;;;;;;3.65;0.57;;;;;;;;;;5023487;28;20037;-71
2023/03/06 08:37:42;;;;;;;3.42;0.65;;;;;;;;;;5021600;28;20034;-71
2023/03/06 08:40:08;;;;;;;4.13;0.80;;;;;;;;;;5021534;28;20038;-71
2023/03/06 08:42:33;;;;;;;3.92;0.60;;;;;;;;;;5023873;28;20060;-72
2023/03/06 08:44:58;;;;;;;3.05;0.70;;;;;;;;;;5023334;28;20033;-71
2023/03/06 08:47:23;;;;;;;2.90;0.70;;;;;;;;;;5021876;28;20025;-70
2023/03/06 08:49:49;;;;;;;2.38;0.52;;;;;;;;;;5023341;28;20435;-71
2023/03/06 08:52:15;;;;;;;1.38;0.52;;;;;;;;;;5022704;28;20116;-71
2023/03/06 08:54:41;;;;;;;3.35;0.60;;;;;;;;;;5023596;28;20041;-71
2023/03/06 08:57:07;;;;;;;3.60;0.60;;;;;;;;;;5021987;28;20033;-72
2023/03/06 08:59:33;;;;;;;4.70;0.70;;;;;;;;;;5021354;28;20470;-69
2023/03/06 09:01:58;;;;;;;2.80;0.60;;;;;;;;;;5021697;28;20045;-71
2023/03/06 09:04:24;;;;;;;4.10;0.50;;;;;;;;;;5022835;28;20044;-71
2023/03/06 09:06:49;;;;;;;1.77;0.50;;;;;;;;;;5004614;28;20025;-72
2023/03/06 09:09:15;;;;;;;2.50;0.50;;;;;;;;;;5005236;28;20037;-71
2023/03/06 09:11:40;;;;;;;2.83;0.60;;;;;;;;;;5022926;28;20099;-71
2023/03/06 09:14:06;;;;;;;4.35;0.60;;;;;;;;;;5021597;28;20037;-71
2023/03/06 09:16:31;;;;;;;2.92;0.52;;;;;;;;;;5021371;28;20113;-70
2023/03/06 09:18:57;;;;;;;2.17;0.60;;;;;;;;;;5022840;28;20116;-70
2023/03/06 09:21:27;;;;;;;2.63;0.60;;;;;;;;;;5021206;28;20555;-72
2023/03/06 09:23:54;;;;;;;7.75;0.70;;;;;;;;;;5020753;28;20049;-71
2023/03/06 09:26:19;;;;;;;1.58;0.50;;;;;;;;;;5021382;28;20043;-70
2023/03/06 09:28:45;;;;;;;3.40;0.50;;;;;;;;;;5020752;28;20033;-69
2023/03/06 09:31:15;;;;;;;3.45;0.50;;;;;;;;;;5021192;28;20043;-70
2023/03/06 09:33:40;;;;;;;4.35;0.90;;;;;;;;;;5003957;28;20068;-69
2023/03/06 09:36:06;;;;;;;12.57;1.10;;;;;;;;;;5054716;28;20658;-69
2023/03/06 09:38:31;;;;;;;5.72;1.00;;;;;;;;;;5020772;28;20389;-70
2023/03/06 09:40:57;;;;;;;8.18;1.45;;;;;;;;;;5037630;28;20033;-71
2023/03/06 09:43:42;;;;;;;6.03;1.35;;;;;;;;;;5021068;28;20030;-71
2023/03/06 09:46:20;;;;;;;11.73;1.48;;;;;;;;;;5025087;28;20333;-71
2023/03/06 09:49:09;;;;;;;4.07;1.77;;;;;;;;;;5039427;28;20025;-69
2023/03/06 09:51:41;;;;;;;5.00;1.50;;;;;;;;;;5042497;28;20032;-70
2023/03/06 09:54:12;;;;;;;3.75;1.70;;;;;;;;;;5042448;28;20472;-70
2023/03/06 09:56:37;;;;;;;4.60;2.38;;;;;;;;;;5040409;28;20033;-68
2023/03/06 09:59:10;;;;;;;8.90;2.25;;;;;;;;;;5040770;28;20401;-70
2023/03/06 10:01:38;;;;;;;6.35;1.58;;;;;;;;;;5040809;28;20036;-70
2023/03/06 10:04:09;;;;;;;4.22;0.70;;;;;;;;;;5040622;28;20115;-69
2023/03/06 10:06:40;;;;;;;3.75;0.90;;;;;;;;;;5042147;28;20108;-71
2023/03/06 10:09:17;;;;;;;6.03;1.00;;;;;;;;;;5040794;28;20179;-70
2023/03/06 10:11:46;;;;;;;2.63;0.70;;;;;;;;;;5040959;28;20037;-70
2023/03/06 10:14:17;;;;;;;2.75;1.40;;;;;;;;;;5042500;28;20119;-70
2023/03/06 10:16:43;;;;;;;5.38;0.90;;;;;;;;;;5040454;28;20502;-70
2023/03/06 10:19:12;;;;;;;2.65;0.90;;;;;;;;;;5040802;28;20129;-71
2023/03/06 10:21:44;;;;;;;7.88;1.35;;;;;;;;;;5040778;28;20033;-71
2023/03/06 10:24:38;;;;;;;6.03;0.98;;;;;;;;;;5073469;28;20032;-70
2023/03/06 10:27:24;;;;;;;5.15;0.88;;;;;;;;;;5039541;28;20105;-69
2023/03/06 10:29:53;;;;;;;3.15;0.60;;;;;;;;;;5040675;28;20071;-69
2023/03/06 10:32:30;;;;;;;4.43;1.00;;;;;;;;;;5043403;28;20043;-70
2023/03/06 10:34:59;;;;;;;7.43;0.90;;;;;;;;;;5032400;28;20068;-69
2023/03/06 10:37:29;;;;;;;7.68;2.47;;;;;;;;;;5056551;28;20025;-70
2023/03/06 10:39:59;;;;;;;2.38;0.90;;;;;;;;;;5041163;28;20057;-70
2023/03/06 10:42:24;;;;;;;3.42;1.00;;;;;;;;;;5023998;28;20581;-70
2023/03/06 10:45:04;;;;;;;6.50;0.85;;;;;;;;;;5023910;28;20121;-70
2023/03/06 10:47:34;;;;;;;8.93;1.23;;;;;;;;;;5040851;28;20028;-70
2023/03/06 10:50:03;;;;;;;10.80;1.27;;;;;;;;;;5043937;28;20630;-70
2023/03/06 10:52:29;;;;;;;5.95;1.30;;;;;;;;;;5045646;28;20032;-70
2023/03/06 10:55:12;;;;;;;7.72;1.05;;;;;;;;;;5025160;28;20030;-70
2023/03/06 10:57:39;;;;;;;9.55;1.42;;;;;;;;;;5025595;28;20429;-70
2023/03/06 11:00:07;;;;;;;3.80;0.88;;;;;;;;;;5025043;28;20020;-70
2023/03/06 11:02:37;;;;;;;6.63;0.95;;;;;;;;;;5025701;28;20501;-71
2023/03/06 11:05:03;;;;;;;6.07;0.98;;;;;;;;;;5025143;28;20083;-71
2023/03/06 11:07:32;;;;;;;4.60;1.58;;;;;;;;;;5007843;28;20320;-70
2023/03/06 11:09:57;;;;;;;4.82;1.25;;;;;;;;;;5023342;28;20048;-70
2023/03/06 11:12:26;;;;;;;9.45;3.60;;;;;;;;;;5023712;28;20446;-70
2023/03/06 11:15:11;;;;;;;6.45;3.03;;;;;;;;;;5024083;28;20040;-72
2023/03/06 11:17:46;;;;;;;6.30;1.98;;;;;;;;;;5024872;28;20025;-71
2023/03/06 11:20:19;;;;;;;4.32;2.28;;;;;;;;;;5023261;28;20079;-70
2023/03/06 11:22:47;;;;;;;7.30;2.50;;;;;;;;;;5023157;28;20367;-72
2023/03/06 11:25:13;;;;;;;6.22;2.35;;;;;;;;;;5022876;28;20044;-71
2023/03/06 11:27:41;;;;;;;10.18;2.83;;;;;;;;;;5024041;28;20036;-71
2023/03/06 11:30:27;;;;;;;6.32;2.13;;;;;;;;;;5023240;28;20591;-71
2023/03/06 11:33:00;;;;;;;9.10;3.95;;;;;;;;;;4985744;28;20049;-71
2023/03/06 11:35:33;;;;;;;7.82;2.45;;;;;;;;;;5003106;28;20038;-70
2023/03/06 11:38:05;;;;;;;8.10;3.60;;;;;;;;;;5004477;28;20033;-70
2023/03/06 11:40:51;;;;;;;9.55;3.35;;;;;;;;;;5004630;28;20034;-72
2023/03/06 11:43:22;;;;;;;9.18;3.38;;;;;;;;;;5021694;28;20080;-71
2023/03/06 11:45:55;;;;;;;6.30;2.63;;;;;;;;;;5040061;28;20183;-72
2023/03/06 11:48:26;;;;;;;7.72;3.33;;;;;;;;;;5059595;28;20025;-70
2023/03/06 11:50:54;;;;;;;7.80;2.95;;;;;;;;;;5044216;28;20036;-70
2023/03/06 11:53:21;;;;;;;8.90;3.97;;;;;;;;;;5044441;28;20478;-71
2023/03/06 11:55:47;;;;;;;13.23;4.30;;;;;;;;;;5044534;28;20104;-70
2023/03/06 11:58:31;;;;;;;11.75;5.28;;;;;;;;;;5043569;28;20120;-71
2023/03/06 12:00:56;;;;;;;8.32;5.30;;;;;;;;;;5042831;28;20052;-71
2023/03/06 12:03:21;;;;;;;7.88;5.68;;;;;;;;;;5043984;28;20119;-71
2023/03/06 12:05:52;;;;;;;9.05;4.80;;;;;;;;;;5043729;28;20032;-71
2023/03/06 12:08:25;;;;;;;9.77;5.15;;;;;;;;;;5043606;28;20646;-71
2023/03/06 12:10:56;;;;;;;8.60;5.13;;;;;;;;;;5043407;28;20036;-71
2023/03/06 12:13:29;;;;;;;12.02;5.80;;;;;;;;;;5042017;28;20029;-70
2023/03/06 12:16:01;;;;;;;9.95;4.50;;;;;;;;;;5043729;28;20036;-70
2023/03/06 12:18:32;;;;;;;10.20;5.03;;;;;;;;;;5043958;28;20035;-71
2023/03/06 12:21:15;;;;;;;13.88;6.53;;;;;;;;;;5042639;28;20029;-71
2023/03/06 12:23:52;;;;;;;12.55;6.35;;;;;;;;;;5043586;28;20120;-72
2023/03/06 12:26:24;;;;;;;11.23;5.07;;;;;;;;;;5042925;28;20447;-71
2023/03/06 12:28:52;;;;;;;9.55;4.82;;;;;;;;;;5042997;28;20502;-71
2023/03/06 12:31:23;;;;;;;12.02;6.50;;;;;;;;;;5041405;28;20117;-70
2023/03/06 12:34:07;;;;;;;11.88;6.20;;;;;;;;;;5031864;28;20033;-70
2023/03/06 12:36:32;;;;;;;11.52;5.85;;;;;;;;;;5021747;28;20025;-73
2023/03/06 12:39:04;;;;;;;10.88;6.70;;;;;;;;;;5021832;28;20029;-70
2023/03/06 12:41:39;;;;;;;9.25;6.15;;;;;;;;;;5023060;28;20041;-71
2023/03/06 12:44:10;;;;;;;11.43;6.38;;;;;;;;;;5023469;28;20044;-71
2023/03/06 12:46:38;;;;;;;8.30;5.32;;;;;;;;;;5029441;28;20383;-71
2023/03/06 12:49:18;;;;;;;8.48;5.30;;;;;;;;;;5043182;28;20025;-71
2023/03/06 12:51:46;;;;;;;10.15;5.30;;;;;;;;;;5041566;28;20512;-71
2023/03/06 12:54:16;;;;;;;13.07;4.72;;;;;;;;;;5042208;28;20025;-70
2023/03/06 12:56:42;;;;;;;9.88;5.47;;;;;;;;;;5042903;28;20058;-71
2023/03/06 12:59:27;;;;;;;13.48;4.97;;;;;;;;;;5043149;28;20066;-71
2023/03/06 13:02:03;;;;;;;12.73;4.65;;;;;;;;;;5040964;28;20525;-71
2023/03/06 13:04:43;;;;;;;11.32;4.57;;;;;;;;;;5042699;28;20583;-72
2023/03/06 13:07:26;;;;;;;13.40;4.78;;;;;;;;;;5039585;28;20025;-71
2023/03/06 13:09:54;;;;;;;9.50;4.03;;;;;;;;;;5041092;28;20036;-71
2023/03/06 13:12:24;;;;;;;13.52;4.55;;;;;;;;;;5043116;28;20101;-71
2023/03/06 13:14:58;;;;;;;16.88;5.22;;;;;;;;;;5024586;28;20029;-71
2023/03/06 13:17:23;;;;;;;11.07;5.28;;;;;;;;;;5041070;28;20025;-72
2023/03/06 13:20:08;;;;;;;11.73;5.88;;;;;;;;;;5043021;28;20033;-71
2023/03/06 13:22:34;;;;;;;14.27;6.68;;;;;;;;;;5040835;28;20570;-73
2023/03/06 13:25:08;;;;;;;13.13;6.35;;;;;;;;;;5040934;28;20041;-70
2023/03/06 13:27:44;;;;;;;10.15;5.55;;;;;;;;;;5039276;28;20025;-71
2023/03/06 13:30:19;;;;;;;13.18;5.78;;;;;;;;;;5057471;28;20283;-71
2023/03/06 13:32:45;;;;;;;15.93;5.78;;;;;;;;;;5019795;28;20048;-71
2023/03/06 13:35:28;;;;;;;14.15;5.95;;;;;;;;;;5021442;28;20021;-72
2023/03/06 13:37:54;;;;;;;14.10;7.07;;;;;;;;;;5022868;28;20478;-70
2023/03/06 13:40:26;;;;;;;11.45;6.20;;;;;;;;;;5021491;28;20118;-70
2023/03/06 13:42:52;;;;;;;13.65;6.00;;;;;;;;;;5021005;28;20080;-70
2023/03/06 13:45:38;;;;;;;15.32;7.15;;;;;;;;;;5022940;28;20034;-70
2023/03/06 13:48:04;;;;;;;12.70;7.07;;;;;;;;;;5041672;28;20171;-71
2023/03/06 13:50:40;;;;;;;16.67;6.90;;;;;;;;;;5042170;28;20037;-72
2023/03/06 13:53:17;;;;;;;18.10;7.43;;;;;;;;;;5042200;28;20029;-70
2023/03/06 13:55:49;;;;;;;16.50;7.47;;;;;;;;;;5041062;28;20444;-70
2023/03/06 13:58:33;;;;;;;13.52;6.18;;;;;;;;;;5042230;28;20033;-70
2023/03/06 14:01:09;;;;;;;17.80;6.40;;;;;;;;;;5040920;28;20032;-70
2023/03/06 14:03:49;;;;;;;10.65;3.90;;;;;;;;;;5040754;28;20021;-70
2023/03/06 14:06:33;;;;;;;11.77;5.47;;;;;;;;;;5041525;28;20026;-71
2023/03/06 14:08:59;;;;;;;9.30;3.13;;;;;;;;;;5045970;28;20036;-70
2023/03/06 14:11:27;;;;;;;14.15;5.00;;;;;;;;;;5046035;28;20461;-70
2023/03/06 14:13:54;;;;;;;10.45;3.58;;;;;;;;;;5044582;28;20044;-70
2023/03/06 14:16:21;;;;;;;7.70;3.10;;;;;;;;;;5045704;28;20264;-72
2023/03/06 14:18:48;;;;;;;11.52;4.25;;;;;;;;;;5046300;28;20590;-69
2023/03/06 14:21:19;;;;;;;10.10;3.10;;;;;;;;;;5043925;28;20108;-69
2023/03/06 14:23:46;;;;;;;9.33;2.47;;;;;;;;;;5045805;28;20033;-70
2023/03/06 14:26:16;;;;;;;12.35;3.33;;;;;;;;;;5045839;28;20271;-70
2023/03/06 14:29:00;;;;;;;9.98;4.53;;;;;;;;;;5046041;28;20041;-70
2023/03/06 14:31:29;;;;;;;12.70;3.90;;;;;;;;;;5045667;28;20041;-70
2023/03/06 14:33:57;;;;;;;9.57;4.20;;;;;;;;;;5030438;28;20026;-70
2023/03/06 14:36:24;;;;;;;10.57;4.88;;;;;;;;;;5025626;28;20029;-70
2023/03/06 14:38:55;;;;;;;7.15;3.30;;;;;;;;;;5040479;28;20029;-70
2023/03/06 14:41:25;;;;;;;8.02;4.07;;;;;;;;;;5025596;28;20056;-69
2023/03/06 14:43:51;;;;;;;12.40;5.05;;;;;;;;;;5025218;28;20627;-70
2023/03/06 14:46:20;;;;;;;12.82;5.35;;;;;;;;;;5061631;28;20064;-70